createdAt,value
2022-10-23T00:00:32.718Z,96.86
2022-10-23T00:01:32.669Z,96.71
2022-10-23T00:02:32.753Z,96.20
2022-10-23T00:03:32.636Z,96.00
2022-10-23T00:04:32.621Z,96.10
2022-10-23T00:05:33.617Z,96.00
2022-10-23T00:06:32.617Z,96.04
2022-10-23T00:07:32.598Z,96.45
2022-10-23T00:08:32.582Z,95.59
2022-10-23T00:09:32.573Z,96.00
2022-10-23T00:10:32.563Z,96.25
2022-10-23T00:11:32.560Z,95.64
2022-10-23T00:12:32.544Z,96.04
2022-10-23T00:13:32.535Z,95.94
2022-10-23T00:14:32.522Z,96.20
2022-10-23T00:15:32.516Z,96.04
2022-10-23T00:16:32.520Z,96.04
2022-10-23T00:17:32.496Z,95.74
2022-10-23T00:18:32.483Z,95.13
2022-10-23T00:19:32.477Z,95.23
2022-10-23T00:20:32.467Z,95.33
2022-10-23T00:21:32.472Z,95.13
2022-10-23T00:22:32.444Z,95.23
2022-10-23T00:23:32.466Z,94.92
2022-10-23T00:24:32.424Z,94.97
2022-10-23T00:25:32.417Z,94.92
2022-10-23T00:26:32.413Z,95.07
2022-10-23T00:27:32.395Z,94.82
2022-10-23T00:28:32.385Z,95.13
2022-10-23T00:29:32.371Z,94.87
2022-10-23T00:30:32.361Z,94.97
2022-10-23T00:31:32.364Z,94.97
2022-10-23T00:33:33.333Z,94.87
2022-10-23T00:34:32.321Z,94.66
2022-10-23T00:35:32.315Z,95.58
2022-10-23T00:36:32.306Z,95.37
2022-10-23T00:37:32.288Z,96.30
2022-10-23T00:38:32.282Z,96.19
2022-10-23T00:39:32.286Z,95.98
2022-10-23T00:40:32.269Z,95.89
2022-10-23T00:41:32.266Z,95.48
2022-10-23T00:42:32.239Z,96.39
2022-10-23T00:43:32.226Z,96.19
2022-10-23T00:44:32.217Z,96.39
2022-10-23T00:45:32.212Z,96.09
2022-10-23T00:46:32.195Z,96.39
2022-10-23T00:47:32.192Z,97.77
2022-10-23T00:48:32.175Z,97.82
2022-10-23T00:49:33.613Z,97.62
2022-10-23T00:50:32.167Z,97.41
2022-10-23T00:51:32.151Z,96.91
2022-10-23T00:52:32.137Z,97.21
2022-10-23T00:53:32.127Z,96.60
2022-10-23T00:54:32.117Z,96.50
2022-10-23T00:55:32.117Z,96.30
2022-10-23T00:56:32.092Z,95.98
2022-10-23T00:57:32.087Z,96.30
2022-10-23T00:58:32.077Z,95.78
2022-10-23T00:59:32.065Z,95.89
2022-10-23T01:00:32.075Z,95.89
2022-10-23T01:01:32.247Z,95.89
2022-10-23T01:02:32.096Z,95.93
2022-10-23T01:03:32.024Z,95.52
2022-10-23T01:04:32.012Z,96.03
2022-10-23T01:05:32.017Z,96.23
2022-10-23T01:06:31.993Z,96.44
2022-10-23T01:07:31.982Z,96.14
2022-10-23T01:08:31.970Z,96.54
2022-10-23T01:09:32.030Z,97.11
2022-10-23T01:10:31.961Z,96.64
2022-10-23T01:11:31.942Z,96.30
2022-10-23T01:12:31.932Z,96.54
2022-10-23T01:13:31.922Z,96.39
2022-10-23T01:14:31.910Z,96.54
2022-10-23T01:15:31.911Z,96.54
2022-10-23T01:16:31.899Z,96.84
2022-10-23T01:17:32.884Z,97.66
2022-10-23T01:18:31.872Z,97.66
2022-10-23T01:19:31.863Z,97.82
2022-10-23T01:20:31.865Z,97.31
2022-10-23T01:21:31.841Z,97.41
2022-10-23T01:22:31.833Z,97.77
2022-10-23T01:23:31.822Z,97.25
2022-10-23T01:24:31.810Z,97.05
2022-10-23T01:25:31.792Z,96.54
2022-10-23T01:26:31.798Z,96.64
2022-10-23T01:27:31.779Z,96.23
2022-10-23T01:28:31.766Z,96.34
2022-10-23T01:29:31.757Z,95.93
2022-10-23T01:30:31.899Z,96.34
2022-10-23T01:31:31.745Z,96.44
2022-10-23T01:32:31.723Z,96.03
2022-10-23T01:33:31.713Z,96.23
2022-10-23T01:34:31.706Z,96.23
2022-10-23T01:35:31.697Z,95.93
2022-10-23T01:36:31.691Z,96.14
2022-10-23T01:37:31.671Z,96.48
2022-10-23T01:38:31.665Z,96.59
2022-10-23T01:39:31.643Z,96.95
2022-10-23T01:40:32.641Z,96.95
2022-10-23T01:41:31.643Z,97.30
2022-10-23T01:42:31.624Z,97.05
2022-10-23T01:43:31.616Z,96.95
2022-10-23T01:44:31.598Z,97.05
2022-10-23T01:45:31.590Z,97.66
2022-10-23T01:46:31.593Z,97.36
2022-10-23T01:47:31.572Z,97.36
2022-10-23T01:48:31.560Z,97.56
2022-10-23T01:49:31.548Z,97.56
2022-10-23T01:50:31.543Z,97.61
2022-10-23T01:51:31.541Z,97.46
2022-10-23T01:52:31.524Z,97.05
2022-10-23T01:53:31.508Z,98.18
2022-10-23T01:54:31.504Z,97.16
2022-10-23T01:55:31.574Z,97.46
2022-10-23T01:56:31.493Z,97.66
2022-10-23T01:57:31.469Z,96.95
2022-10-23T01:58:31.459Z,97.46
2022-10-23T01:59:31.450Z,97.77
2022-10-23T02:00:31.441Z,97.66
2022-10-23T02:01:31.588Z,97.66
2022-10-23T02:02:31.480Z,97.77
2022-10-23T02:03:31.413Z,97.66
2022-10-23T02:04:31.405Z,97.16
2022-10-23T02:05:31.390Z,97.25
2022-10-23T02:06:31.395Z,97.25
2022-10-23T02:07:31.373Z,97.25
2022-10-23T02:08:31.365Z,97.87
2022-10-23T02:09:31.354Z,97.36
2022-10-23T02:10:31.345Z,97.46
2022-10-23T02:11:31.344Z,97.46
2022-10-23T02:12:31.325Z,97.25
2022-10-23T02:13:31.316Z,97.77
2022-10-23T02:14:31.307Z,97.97
2022-10-23T02:15:31.296Z,97.87
2022-10-23T02:16:31.300Z,97.87
2022-10-23T02:17:31.368Z,97.77
2022-10-23T02:18:31.264Z,97.46
2022-10-23T02:19:31.254Z,97.66
2022-10-23T02:20:31.293Z,97.25
2022-10-23T02:21:31.251Z,97.56
2022-10-23T02:22:31.225Z,97.36
2022-10-23T02:23:31.212Z,97.36
2022-10-23T02:24:31.200Z,97.52
2022-10-23T02:25:31.194Z,97.25
2022-10-23T02:26:31.193Z,97.25
2022-10-23T02:27:31.170Z,97.46
2022-10-23T02:28:31.161Z,97.25
2022-10-23T02:29:31.149Z,97.66
2022-10-23T02:30:31.151Z,98.07
2022-10-23T02:31:31.138Z,97.56
2022-10-23T02:32:31.118Z,97.25
2022-10-23T02:33:31.110Z,97.16
2022-10-23T02:34:31.097Z,97.36
2022-10-23T02:35:31.096Z,97.56
2022-10-23T02:36:31.074Z,96.84
2022-10-23T02:37:31.061Z,97.87
2022-10-23T02:38:31.055Z,97.16
2022-10-23T02:39:31.056Z,96.95
2022-10-23T02:40:31.060Z,96.95
2022-10-23T02:41:31.027Z,97.05
2022-10-23T02:42:31.019Z,96.95
2022-10-23T02:43:31.004Z,97.25
2022-10-23T02:44:30.996Z,97.66
2022-10-23T02:45:31.047Z,97.87
2022-10-23T02:46:30.976Z,97.97
2022-10-23T02:47:30.968Z,97.77
2022-10-23T02:48:30.955Z,97.25
2022-10-23T02:49:30.946Z,97.46
2022-10-23T02:50:30.938Z,97.71
2022-10-23T02:51:30.936Z,98.32
2022-10-23T02:52:30.921Z,97.56
2022-10-23T02:53:30.906Z,97.87
2022-10-23T02:54:30.898Z,97.87
2022-10-23T02:55:30.903Z,97.05
2022-10-23T02:56:32.657Z,97.71
2022-10-23T02:57:30.868Z,97.77
2022-10-23T02:58:30.863Z,97.56
2022-10-23T02:59:30.844Z,97.46
2022-10-23T03:00:30.836Z,98.18
2022-10-23T03:01:30.957Z,97.40
2022-10-23T03:03:30.809Z,98.02
2022-10-23T03:04:30.798Z,97.61
2022-10-23T03:05:30.797Z,97.61
2022-10-23T03:06:30.782Z,97.36
2022-10-23T03:07:30.767Z,97.61
2022-10-23T03:08:30.757Z,97.20
2022-10-23T03:09:30.746Z,97.81
2022-10-23T03:10:30.739Z,97.71
2022-10-23T03:11:30.735Z,97.50
2022-10-23T03:12:30.718Z,97.71
2022-10-23T03:13:30.709Z,97.71
2022-10-23T03:14:30.698Z,97.81
2022-10-23T03:15:30.696Z,97.30
2022-10-23T03:16:30.697Z,97.66
2022-10-23T03:17:30.667Z,97.66
2022-10-23T03:18:30.659Z,97.40
2022-10-23T03:19:30.646Z,97.40
2022-10-23T03:20:30.640Z,98.02
2022-10-23T03:21:30.644Z,98.22
2022-10-23T03:22:30.619Z,97.56
2022-10-23T03:23:30.612Z,97.81
2022-10-23T03:24:30.602Z,98.07
2022-10-23T03:25:30.584Z,98.18
2022-10-23T03:26:30.585Z,97.61
2022-10-23T03:27:30.567Z,97.87
2022-10-23T03:28:30.554Z,97.87
2022-10-23T03:29:30.544Z,97.91
2022-10-23T03:30:30.534Z,97.91
2022-10-23T03:31:30.543Z,97.71
2022-10-23T03:32:30.516Z,97.71
2022-10-23T03:33:30.507Z,98.07
2022-10-23T03:34:30.492Z,97.36
2022-10-23T03:35:30.483Z,97.40
2022-10-23T03:36:30.480Z,97.25
2022-10-23T03:37:30.474Z,97.50
2022-10-23T03:38:30.450Z,97.71
2022-10-23T03:39:30.434Z,97.66
2022-10-23T03:40:30.425Z,97.81
2022-10-23T03:41:30.435Z,97.91
2022-10-23T03:42:30.426Z,97.91
2022-10-23T03:43:30.398Z,97.81
2022-10-23T03:44:30.389Z,97.71
2022-10-23T03:45:30.375Z,97.40
2022-10-23T03:46:30.376Z,97.71
2022-10-23T03:47:30.350Z,97.81
2022-10-23T03:48:30.342Z,97.50
2022-10-23T03:49:30.330Z,97.86
2022-10-23T03:50:30.323Z,98.32
2022-10-23T03:51:30.333Z,97.81
2022-10-23T03:52:30.308Z,98.43
2022-10-23T03:53:30.291Z,98.11
2022-10-23T03:54:30.282Z,97.91
2022-10-23T03:55:30.269Z,97.71
2022-10-23T03:56:30.271Z,97.81
2022-10-23T03:57:30.243Z,97.50
2022-10-23T03:58:30.235Z,97.91
2022-10-23T03:59:30.225Z,97.61
2022-10-23T04:00:30.317Z,97.50
2022-10-23T04:01:30.316Z,97.20
2022-10-23T04:02:30.265Z,97.40
2022-10-23T04:03:30.179Z,97.50
2022-10-23T04:04:31.176Z,97.71
2022-10-23T04:05:30.184Z,97.50
2022-10-23T04:06:30.152Z,97.50
2022-10-23T04:07:30.151Z,97.81
2022-10-23T04:08:30.135Z,98.02
2022-10-23T04:09:30.126Z,97.91
2022-10-23T04:10:30.129Z,98.43
2022-10-23T04:11:30.107Z,98.43
2022-10-23T04:12:30.098Z,98.43
2022-10-23T04:13:30.081Z,98.32
2022-10-23T04:14:30.074Z,98.36
2022-10-23T04:15:30.073Z,98.63
2022-10-23T04:16:30.050Z,98.43
2022-10-23T04:17:30.053Z,98.22
2022-10-23T04:18:30.032Z,98.22
2022-10-23T04:19:30.025Z,97.81
2022-10-23T04:20:30.023Z,98.02
2022-10-23T04:21:29.999Z,98.02
2022-10-23T04:22:29.994Z,98.22
2022-10-23T04:23:29.977Z,97.91
2022-10-23T04:24:29.966Z,98.11
2022-10-23T04:25:29.967Z,97.40
2022-10-23T04:26:29.949Z,97.55
2022-10-23T04:27:29.935Z,97.45
2022-10-23T04:28:29.931Z,97.40
2022-10-23T04:29:29.912Z,97.55
2022-10-23T04:30:29.916Z,97.61
2022-10-23T04:31:29.894Z,97.09
2022-10-23T04:32:29.882Z,98.02
2022-10-23T04:33:29.874Z,97.86
2022-10-23T04:34:29.864Z,98.11
2022-10-23T04:35:29.874Z,98.02
2022-10-23T04:36:29.849Z,97.91
2022-10-23T04:37:29.835Z,98.02
2022-10-23T04:38:29.827Z,98.06
2022-10-23T04:39:29.817Z,97.71
2022-10-23T04:40:29.815Z,97.30
2022-10-23T04:41:29.789Z,97.91
2022-10-23T04:42:29.801Z,97.04
2022-10-23T04:43:29.792Z,98.22
2022-10-23T04:44:29.770Z,97.81
2022-10-23T04:45:29.757Z,97.96
2022-10-23T04:46:29.759Z,97.86
2022-10-23T04:47:29.736Z,97.96
2022-10-23T04:48:29.727Z,98.27
2022-10-23T04:49:29.721Z,97.71
2022-10-23T04:50:29.704Z,97.81
2022-10-23T04:51:29.709Z,97.86
2022-10-23T04:52:29.686Z,98.43
2022-10-23T04:53:29.668Z,98.98
2022-10-23T04:54:29.664Z,98.11
2022-10-23T04:55:29.652Z,98.32
2022-10-23T04:56:29.650Z,98.32
2022-10-23T04:57:29.631Z,98.43
2022-10-23T04:58:29.626Z,98.32
2022-10-23T04:59:29.606Z,98.52
2022-10-23T05:00:29.696Z,98.43
2022-10-23T05:01:29.761Z,99.34
2022-10-23T05:02:29.576Z,98.52
2022-10-23T05:03:29.566Z,99.29
2022-10-23T05:04:29.556Z,99.18
2022-10-23T05:05:29.546Z,98.73
2022-10-23T05:06:29.546Z,98.83
2022-10-23T05:07:29.529Z,98.83
2022-10-23T05:08:29.514Z,98.63
2022-10-23T05:09:29.505Z,98.63
2022-10-23T05:10:29.492Z,99.34
2022-10-23T05:11:29.494Z,98.93
2022-10-23T05:12:29.475Z,98.32
2022-10-23T05:13:29.471Z,98.22
2022-10-23T05:14:29.454Z,98.43
2022-10-23T05:15:29.511Z,98.52
2022-10-23T05:16:55.352Z,97.61
2022-10-23T05:17:29.432Z,97.61
2022-10-23T05:18:29.415Z,97.71
2022-10-23T05:19:29.407Z,97.91
2022-10-23T05:20:29.394Z,98.22
2022-10-23T05:21:29.401Z,98.32
2022-10-23T05:22:29.370Z,98.43
2022-10-23T05:23:29.362Z,98.02
2022-10-23T05:24:29.353Z,97.71
2022-10-23T05:25:29.341Z,97.81
2022-10-23T05:26:29.345Z,97.96
2022-10-23T05:27:29.320Z,98.32
2022-10-23T05:28:29.314Z,98.63
2022-10-23T05:29:29.307Z,98.52
2022-10-23T05:30:29.292Z,99.14
2022-10-23T05:31:29.299Z,99.34
2022-10-23T05:32:29.273Z,98.83
2022-10-23T05:33:29.265Z,99.24
2022-10-23T05:34:29.254Z,99.24
2022-10-23T05:35:29.245Z,99.54
2022-10-23T05:36:29.248Z,99.75
2022-10-23T05:37:29.223Z,99.14
2022-10-23T05:38:29.213Z,98.63
2022-10-23T05:39:29.205Z,99.34
2022-10-23T05:40:29.279Z,99.44
2022-10-23T05:41:29.192Z,99.24
2022-10-23T05:42:29.174Z,98.68
2022-10-23T05:43:29.171Z,98.89
2022-10-23T05:44:29.150Z,98.48
2022-10-23T05:45:29.146Z,98.99
2022-10-23T05:46:29.147Z,99.40
2022-10-23T05:47:29.126Z,98.38
2022-10-23T05:48:36.261Z,98.48
2022-10-23T05:49:31.107Z,98.38
2022-10-23T05:50:29.099Z,97.91
2022-10-23T05:51:29.090Z,97.87
2022-10-23T05:52:29.074Z,97.97
2022-10-23T05:53:29.065Z,97.97
2022-10-23T05:54:29.053Z,97.87
2022-10-23T05:55:29.044Z,97.87
2022-10-23T05:56:29.045Z,97.97
2022-10-23T05:57:29.020Z,97.77
2022-10-23T05:58:29.012Z,97.30
2022-10-23T05:59:29.002Z,97.50
2022-10-23T06:00:29.086Z,97.40
2022-10-23T06:01:29.110Z,97.50
2022-10-23T06:02:29.099Z,97.20
2022-10-23T06:03:28.962Z,98.02
2022-10-23T06:04:28.954Z,98.43
2022-10-23T06:05:28.981Z,98.38
2022-10-23T06:06:28.943Z,99.24
2022-10-23T06:07:31.222Z,98.43
2022-10-23T06:08:28.910Z,98.22
2022-10-23T06:09:28.903Z,98.32
2022-10-23T06:10:28.962Z,98.22
2022-10-23T06:11:28.896Z,97.91
2022-10-23T06:12:28.870Z,98.02
2022-10-23T06:13:28.860Z,97.91
2022-10-23T06:14:28.850Z,97.91
2022-10-23T06:15:28.839Z,97.20
2022-10-23T06:16:28.848Z,97.71
2022-10-23T06:17:28.825Z,97.40
2022-10-23T06:18:28.811Z,97.09
2022-10-23T06:19:28.803Z,97.36
2022-10-23T06:20:28.941Z,97.40
2022-10-23T06:21:28.788Z,97.56
2022-10-23T06:22:28.776Z,97.36
2022-10-23T06:23:28.761Z,97.25
2022-10-23T06:24:28.751Z,97.71
2022-10-23T06:25:28.741Z,98.22
2022-10-23T06:26:28.738Z,98.22
2022-10-23T06:27:28.725Z,97.46
2022-10-23T06:28:28.711Z,97.40
2022-10-23T06:29:28.700Z,97.46
2022-10-23T06:30:28.904Z,97.56
2022-10-23T06:31:28.695Z,97.46
2022-10-23T06:32:28.671Z,97.25
2022-10-23T06:33:28.655Z,97.66
2022-10-23T06:34:28.652Z,97.87
2022-10-23T06:35:28.646Z,97.66
2022-10-23T06:36:28.642Z,97.05
2022-10-23T06:37:28.625Z,96.95
2022-10-23T06:38:28.620Z,96.91
2022-10-23T06:39:31.240Z,96.34
2022-10-23T06:40:28.683Z,96.54
2022-10-23T06:41:28.590Z,96.44
2022-10-23T06:42:28.574Z,96.75
2022-10-23T06:43:28.564Z,96.60
2022-10-23T06:44:28.547Z,96.50
2022-10-23T06:45:28.538Z,96.84
2022-10-23T06:46:28.539Z,96.70
2022-10-23T06:47:28.520Z,96.60
2022-10-23T06:48:28.516Z,96.60
2022-10-23T06:49:28.498Z,96.70
2022-10-23T06:50:28.551Z,96.91
2022-10-23T06:51:28.495Z,96.50
2022-10-23T06:52:45.977Z,96.30
2022-10-23T06:53:30.468Z,96.95
2022-10-23T06:54:28.449Z,97.16
2022-10-23T06:55:28.557Z,97.77
2022-10-23T06:56:28.443Z,97.72
2022-10-23T06:57:28.422Z,97.31
2022-10-23T06:58:28.407Z,97.31
2022-10-23T06:59:28.394Z,96.91
2022-10-23T07:00:28.466Z,96.60
2022-10-23T07:01:28.607Z,96.45
2022-10-23T07:02:28.366Z,96.39
2022-10-23T07:03:28.357Z,96.35
2022-10-23T07:04:28.342Z,96.70
2022-10-23T07:05:28.334Z,97.21
2022-10-23T07:06:28.336Z,97.00
2022-10-23T07:07:28.316Z,96.91
2022-10-23T07:08:28.300Z,96.91
2022-10-23T07:09:28.304Z,97.21
2022-10-23T07:10:28.281Z,96.91
2022-10-23T07:11:29.294Z,96.86
2022-10-23T07:12:28.263Z,96.55
2022-10-23T07:13:28.250Z,96.25
2022-10-23T07:14:28.242Z,96.20
2022-10-23T07:15:28.235Z,96.41
2022-10-23T07:16:28.247Z,96.30
2022-10-23T07:17:28.208Z,96.10
2022-10-23T07:18:28.242Z,96.00
2022-10-23T07:19:28.200Z,96.10
2022-10-23T07:20:28.183Z,95.95
2022-10-23T07:21:28.184Z,96.06
2022-10-23T07:22:28.163Z,95.65
2022-10-23T07:23:28.156Z,95.54
2022-10-23T07:24:28.142Z,95.34
2022-10-23T07:25:28.132Z,95.04
2022-10-23T07:26:28.135Z,95.04
2022-10-23T07:27:28.115Z,94.84
2022-10-23T07:28:28.105Z,94.84
2022-10-23T07:29:28.087Z,95.20
2022-10-23T07:30:28.086Z,94.48
2022-10-23T07:31:28.425Z,94.48
2022-10-23T07:32:28.064Z,93.37
2022-10-23T07:33:28.053Z,93.32
2022-10-23T07:34:28.044Z,93.43
2022-10-23T07:35:28.030Z,92.61
2022-10-23T07:36:28.032Z,92.61
2022-10-23T07:37:28.012Z,92.41
2022-10-23T07:38:27.997Z,92.10
2022-10-23T07:39:27.994Z,92.10
2022-10-23T07:40:27.978Z,91.80
2022-10-23T07:41:27.978Z,93.06
2022-10-23T07:42:27.951Z,93.37
2022-10-23T07:43:28.023Z,92.91
2022-10-23T07:44:27.965Z,92.00
2022-10-23T07:45:27.927Z,91.94
2022-10-23T07:46:27.932Z,92.14
2022-10-23T07:47:27.907Z,92.76
2022-10-23T07:48:27.898Z,92.35
2022-10-23T07:49:27.882Z,92.25
2022-10-23T07:50:27.873Z,92.25
2022-10-23T07:51:27.875Z,91.64
2022-10-23T07:52:31.951Z,92.04
2022-10-23T07:53:28.843Z,92.25
2022-10-23T07:54:28.273Z,92.51
2022-10-23T07:55:28.819Z,91.80
2022-10-23T07:56:27.825Z,91.96
2022-10-23T07:57:27.826Z,90.84
2022-10-23T07:58:27.794Z,89.68
2022-10-23T07:59:27.788Z,89.58
2022-10-23T08:00:27.903Z,87.69
2022-10-23T08:01:27.822Z,87.65
2022-10-23T08:02:27.849Z,89.52
2022-10-23T08:03:27.742Z,89.52
2022-10-23T08:04:27.733Z,89.92
2022-10-23T08:05:27.723Z,90.03
2022-10-23T08:06:27.722Z,89.88
2022-10-23T08:07:27.710Z,89.88
2022-10-23T08:08:27.693Z,89.78
2022-10-23T08:09:27.685Z,88.12
2022-10-23T08:10:27.664Z,87.37
2022-10-23T08:11:28.672Z,86.96
2022-10-23T08:12:27.653Z,86.15
2022-10-23T08:13:27.641Z,85.36
2022-10-23T08:14:27.631Z,83.63
2022-10-23T08:15:27.618Z,83.80
2022-10-23T08:16:27.621Z,83.86
2022-10-23T08:17:28.328Z,82.90
2022-10-23T08:18:28.592Z,81.05
2022-10-23T08:19:27.587Z,80.30
2022-10-23T08:20:27.578Z,79.96
2022-10-23T08:21:27.579Z,80.16
2022-10-23T08:22:27.554Z,79.05
2022-10-23T08:23:27.541Z,78.99
2022-10-23T08:24:27.529Z,81.15
2022-10-23T08:25:27.565Z,81.67
2022-10-23T08:26:27.534Z,82.38
2022-10-23T08:27:27.506Z,82.45
2022-10-23T08:28:27.491Z,83.98
2022-10-23T08:29:27.477Z,84.22
2022-10-23T08:30:27.470Z,85.13
2022-10-23T08:31:27.497Z,84.36
2022-10-23T08:32:27.476Z,86.22
2022-10-23T08:33:27.443Z,87.59
2022-10-23T08:34:27.429Z,88.97
2022-10-23T08:35:27.416Z,88.97
2022-10-23T08:36:27.409Z,88.67
2022-10-23T08:37:27.411Z,88.12
2022-10-23T08:38:27.389Z,87.65
2022-10-23T08:39:27.379Z,87.89
2022-10-23T08:40:27.360Z,87.55
2022-10-23T08:41:27.357Z,88.26
2022-10-23T08:42:27.354Z,89.37
2022-10-23T08:43:27.334Z,89.03
2022-10-23T08:44:27.321Z,88.52
2022-10-23T08:45:27.314Z,87.97
2022-10-23T08:46:27.302Z,87.37
2022-10-23T08:47:27.308Z,87.61
2022-10-23T08:48:27.286Z,87.51
2022-10-23T08:49:27.278Z,87.55
2022-10-23T08:50:27.259Z,87.85
2022-10-23T08:51:27.252Z,89.83
2022-10-23T08:52:27.247Z,88.20
2022-10-23T08:53:28.228Z,89.62
2022-10-23T08:54:27.222Z,88.40
2022-10-23T08:55:27.208Z,88.10
2022-10-23T08:56:27.304Z,88.60
2022-10-23T08:57:27.202Z,87.59
2022-10-23T08:58:27.177Z,87.95
2022-10-23T08:59:27.166Z,88.52
2022-10-23T09:00:27.158Z,89.84
2022-10-23T09:01:27.272Z,88.06
2022-10-23T09:02:27.201Z,87.85
2022-10-23T09:03:27.129Z,88.32
2022-10-23T09:04:27.111Z,88.12
2022-10-23T09:05:27.102Z,87.81
2022-10-23T09:06:27.117Z,86.19
2022-10-23T09:07:27.100Z,86.96
2022-10-23T09:08:27.126Z,88.23
2022-10-23T09:09:27.065Z,88.03
2022-10-23T09:10:27.052Z,87.93
2022-10-23T09:11:27.044Z,86.15
2022-10-23T09:12:27.042Z,85.44
2022-10-23T09:13:27.021Z,85.64
2022-10-23T09:14:27.012Z,85.84
2022-10-23T09:15:27.002Z,86.39
2022-10-23T09:16:26.993Z,87.92
2022-10-23T09:17:27.006Z,89.54
2022-10-23T09:18:26.969Z,88.42
2022-10-23T09:19:26.965Z,87.71
2022-10-23T09:20:26.950Z,87.37
2022-10-23T09:21:26.942Z,85.74
2022-10-23T09:22:26.943Z,86.25
2022-10-23T09:23:26.919Z,85.70
2022-10-23T09:24:26.913Z,85.56
2022-10-23T09:25:26.898Z,83.69
2022-10-23T09:26:26.890Z,83.04
2022-10-23T09:27:26.890Z,84.16
2022-10-23T09:28:26.884Z,82.90
2022-10-23T09:29:26.858Z,81.99
2022-10-23T09:30:26.850Z,81.23
2022-10-23T09:31:26.839Z,81.77
2022-10-23T09:32:26.843Z,82.31
2022-10-23T09:33:26.816Z,83.47
2022-10-23T09:34:26.815Z,84.22
2022-10-23T09:35:26.797Z,85.70
2022-10-23T09:36:26.791Z,85.44
2022-10-23T09:37:26.785Z,86.00
2022-10-23T09:38:26.770Z,86.27
2022-10-23T09:39:26.761Z,84.75
2022-10-23T09:40:26.750Z,84.48
2022-10-23T09:41:26.737Z,84.85
2022-10-23T09:42:26.736Z,84.24
2022-10-23T09:43:26.720Z,80.84
2022-10-23T09:44:26.709Z,79.96
2022-10-23T09:45:26.686Z,80.06
2022-10-23T09:46:27.692Z,78.92
2022-10-23T09:47:26.687Z,81.83
2022-10-23T09:48:26.667Z,83.59
2022-10-23T09:49:26.657Z,84.75
2022-10-23T09:50:26.651Z,84.58
2022-10-23T09:51:26.641Z,85.30
2022-10-23T09:52:26.637Z,86.45
2022-10-23T09:53:26.618Z,86.15
2022-10-23T09:54:26.606Z,86.45
2022-10-23T09:55:26.596Z,86.25
2022-10-23T09:56:26.618Z,86.41
2022-10-23T09:57:26.576Z,86.98
2022-10-23T09:58:26.578Z,85.93
2022-10-23T09:59:26.555Z,85.62
2022-10-23T10:00:26.555Z,84.33
2022-10-23T10:01:26.693Z,83.33
2022-10-23T10:02:26.529Z,82.39
2022-10-23T10:03:26.517Z,81.92
2022-10-23T10:04:26.510Z,80.80
2022-10-23T10:05:26.500Z,81.78
2022-10-23T10:06:26.563Z,79.66
2022-10-23T10:07:26.474Z,80.10
2022-10-23T10:08:26.470Z,80.34
2022-10-23T10:09:26.457Z,82.03
2022-10-23T10:10:26.452Z,83.04
2022-10-23T10:11:26.448Z,82.54
2022-10-23T10:12:26.430Z,83.29
2022-10-23T10:13:26.428Z,84.91
2022-10-23T10:14:26.410Z,84.41
2022-10-23T10:15:26.404Z,85.52
2022-10-23T10:16:26.443Z,84.91
2022-10-23T10:17:26.382Z,87.34
2022-10-23T10:18:26.367Z,85.01
2022-10-23T10:19:26.355Z,84.87
2022-10-23T10:20:26.347Z,84.47
2022-10-23T10:21:26.350Z,85.27
2022-10-23T10:22:26.324Z,84.02
2022-10-23T10:23:26.319Z,82.70
2022-10-23T10:24:26.306Z,83.11
2022-10-23T10:25:26.294Z,83.31
2022-10-23T10:26:26.322Z,83.37
2022-10-23T10:27:26.278Z,81.85
2022-10-23T10:28:26.269Z,82.26
2022-10-23T10:29:26.263Z,82.50
2022-10-23T10:30:26.251Z,82.90
2022-10-23T10:31:26.241Z,83.21
2022-10-23T10:32:26.242Z,82.87
2022-10-23T10:33:26.223Z,82.97
2022-10-23T10:34:26.214Z,82.73
2022-10-23T10:35:26.208Z,82.93
2022-10-23T10:37:27.183Z,81.82
2022-10-23T10:38:26.170Z,81.15
2022-10-23T10:39:26.168Z,82.40
2022-10-23T10:40:26.157Z,81.99
2022-10-23T10:41:26.143Z,82.56
2022-10-23T10:42:26.142Z,82.73
2022-10-23T10:43:26.127Z,82.53
2022-10-23T10:44:26.115Z,82.62
2022-10-23T10:45:26.105Z,81.68
2022-10-23T10:46:26.105Z,81.27
2022-10-23T10:47:26.100Z,80.77
2022-10-23T10:48:26.081Z,81.07
2022-10-23T10:49:26.076Z,80.97
2022-10-23T10:50:26.060Z,80.97
2022-10-23T10:51:26.050Z,81.48
2022-10-23T10:52:26.051Z,81.57
2022-10-23T10:53:26.028Z,82.08
2022-10-23T10:54:26.021Z,82.69
2022-10-23T10:55:26.011Z,80.63
2022-10-23T10:56:26.003Z,79.66
2022-10-23T10:57:26.003Z,80.36
2022-10-23T10:58:25.987Z,79.96
2022-10-23T10:59:25.975Z,80.57
2022-10-23T11:00:25.963Z,80.87
2022-10-23T11:01:26.086Z,79.96
2022-10-23T11:02:26.012Z,80.97
2022-10-23T11:03:25.933Z,81.68
2022-10-23T11:04:25.923Z,82.08
2022-10-23T11:05:25.907Z,80.87
2022-10-23T11:06:25.900Z,80.73
2022-10-23T11:07:25.906Z,81.54
2022-10-23T11:08:25.879Z,80.16
2022-10-23T11:09:25.870Z,80.06
2022-10-23T11:10:25.860Z,82.49
2022-10-23T11:11:25.847Z,82.18
2022-10-23T11:12:25.854Z,81.74
2022-10-23T11:13:25.830Z,79.62
2022-10-23T11:14:25.824Z,80.73
2022-10-23T11:15:25.812Z,81.74
2022-10-23T11:16:57.711Z,80.02
2022-10-23T11:17:25.789Z,81.94
2022-10-23T11:18:25.780Z,80.87
2022-10-23T11:19:25.770Z,81.27
2022-10-23T11:20:25.764Z,81.48
2022-10-23T11:21:25.753Z,80.83
2022-10-23T11:22:25.748Z,80.73
2022-10-23T11:23:25.728Z,80.22
2022-10-23T11:24:25.715Z,80.06
2022-10-23T11:25:25.710Z,80.43
2022-10-23T11:26:25.697Z,81.44
2022-10-23T11:27:25.760Z,80.83
2022-10-23T11:28:25.678Z,81.13
2022-10-23T11:29:25.672Z,80.73
2022-10-23T11:30:25.660Z,81.44
2022-10-23T11:31:25.669Z,81.03
2022-10-23T11:32:25.719Z,80.79
2022-10-23T11:33:25.625Z,80.29
2022-10-23T11:34:25.619Z,79.68
2022-10-23T11:35:25.609Z,79.72
2022-10-23T11:36:25.599Z,81.13
2022-10-23T11:37:25.601Z,81.48
2022-10-23T11:38:25.580Z,83.33
2022-10-23T11:39:25.602Z,82.22
2022-10-23T11:40:25.557Z,81.41
2022-10-23T11:41:26.920Z,82.42
2022-10-23T11:42:25.550Z,82.18
2022-10-23T11:43:25.528Z,81.57
2022-10-23T11:44:25.520Z,80.77
2022-10-23T11:45:25.513Z,80.43
2022-10-23T11:46:25.506Z,80.53
2022-10-23T11:47:25.486Z,80.32
2022-10-23T11:48:25.478Z,80.19
2022-10-23T11:49:25.468Z,79.58
2022-10-23T11:50:25.458Z,79.64
2022-10-23T11:51:25.464Z,79.58
2022-10-23T11:52:25.439Z,79.99
2022-10-23T11:53:25.428Z,79.62
2022-10-23T11:54:25.417Z,82.04
2022-10-23T11:55:25.412Z,80.26
2022-10-23T11:56:25.423Z,80.46
2022-10-23T11:57:25.456Z,80.97
2022-10-23T11:58:25.381Z,80.97
2022-10-23T11:59:25.373Z,81.03
2022-10-23T12:00:25.359Z,80.83
2022-10-23T12:01:25.409Z,80.53
2022-10-23T12:02:25.610Z,80.32
2022-10-23T12:03:25.331Z,79.72
2022-10-23T12:04:25.321Z,80.57
2022-10-23T12:05:25.311Z,80.63
2022-10-23T12:06:25.302Z,82.49
2022-10-23T12:07:25.302Z,81.54
2022-10-23T12:08:25.282Z,80.53
2022-10-23T12:09:25.271Z,80.63
2022-10-23T12:10:25.260Z,81.34
2022-10-23T12:11:27.476Z,81.84
2022-10-23T12:12:25.248Z,81.74
2022-10-23T12:13:25.230Z,81.10
2022-10-23T12:14:25.218Z,81.34
2022-10-23T12:15:25.214Z,81.64
2022-10-23T12:16:25.199Z,81.70
2022-10-23T12:17:25.204Z,81.70
2022-10-23T12:18:25.178Z,81.36
2022-10-23T12:19:25.170Z,81.26
2022-10-23T12:20:25.170Z,81.36
2022-10-23T12:21:25.148Z,80.29
2022-10-23T12:22:25.215Z,80.99
2022-10-23T12:23:25.128Z,81.36
2022-10-23T12:24:25.120Z,80.59
2022-10-23T12:25:25.113Z,80.59
2022-10-23T12:26:25.098Z,81.74
2022-10-23T12:27:25.099Z,82.55
2022-10-23T12:28:25.083Z,82.04
2022-10-23T12:29:25.069Z,82.55
2022-10-23T12:30:25.059Z,82.89
2022-10-23T12:31:25.050Z,83.26
2022-10-23T12:32:25.054Z,82.75
2022-10-23T12:33:25.026Z,83.40
2022-10-23T12:34:25.015Z,83.70
2022-10-23T12:35:25.010Z,83.50
2022-10-23T12:36:25.001Z,83.40
2022-10-23T12:37:25.003Z,84.41
2022-10-23T12:38:24.980Z,83.60
2022-10-23T12:39:24.975Z,83.44
2022-10-23T12:40:24.963Z,83.94
2022-10-23T12:41:24.952Z,84.25
2022-10-23T12:42:24.955Z,83.88
2022-10-23T12:43:24.934Z,83.58
2022-10-23T12:44:24.921Z,84.48
2022-10-23T12:45:24.906Z,84.48
2022-10-23T12:46:24.902Z,85.86
2022-10-23T12:47:24.978Z,84.04
2022-10-23T12:48:24.888Z,84.55
2022-10-23T12:49:24.879Z,83.84
2022-10-23T12:50:24.857Z,83.61
2022-10-23T12:51:24.851Z,84.22
2022-10-23T12:52:24.861Z,84.33
2022-10-23T12:53:24.832Z,84.93
2022-10-23T12:54:24.835Z,85.30
2022-10-23T12:55:24.815Z,84.59